Time;durP1;ratioP1;P1;durP2;ratioP2;P2;SDS_P1;SDS_P2;PMS_P1;PMS_P2;Temp;Humidity;BMP_temperature;BMP_pressure;BME280_temperature;BME280_humidity;BME280_pressure;Samples;Min_cycle;Max_cycle;Signal;HPM_P1;HPM_P2
2022/01/18 05:24:42;;;;;;;1.23;1.13;;;;;;;-1.49;76.16;61849.41;6169872;23;1310718;-76
2022/01/18 05:27:09;;;;;;;1.77;0.90;;;;;;;-1.52;76.55;61848.84;6197266;23;20216;-76
2022/01/18 05:29:36;;;;;;;1.67;1.58;;;;;;;-1.46;76.05;61857.47;6196948;23;20193;-76
2022/01/18 05:32:03;;;;;;;1.00;1.00;;;;;;;-1.47;76.24;61854.47;6196908;23;20168;-76
2022/01/18 05:34:30;;;;;;;1.60;1.50;;;;;;;-1.51;75.60;61844.88;6196464;23;20265;-77
2022/01/18 05:36:57;;;;;;;1.13;1.02;;;;;;;-1.45;75.53;61851.50;6195569;23;20174;-75
2022/01/18 05:39:23;;;;;;;1.23;0.98;;;;;;;-1.48;75.36;61850.94;6197402;23;20401;-76
2022/01/18 05:41:52;;;;;;;1.25;0.98;;;;;;;-1.46;75.22;61855.50;6196347;23;20213;-75
2022/01/18 05:44:18;;;;;;;1.20;1.20;;;;;;;-1.46;75.42;61850.50;6195945;23;20206;-74
2022/01/18 05:46:45;;;;;;;1.38;1.02;;;;;;;-1.50;76.48;61853.88;6194839;23;20166;-75
2022/01/18 05:49:12;;;;;;;1.23;1.15;;;;;;;-1.48;76.03;61848.44;6196331;23;20190;-75
2022/01/18 05:51:41;;;;;;;1.60;1.42;;;;;;;-1.43;75.64;61856.06;6196272;23;20352;-75
2022/01/18 05:54:09;;;;;;;1.70;0.90;;;;;;;-1.44;75.42;61854.53;6194468;23;20198;-75
2022/01/18 05:56:36;;;;;;;1.20;1.08;;;;;;;-1.50;75.30;61853.38;6195768;23;20221;-75
2022/01/18 05:59:06;;;;;;;2.20;1.80;;;;;;;-1.41;75.53;61862.59;6195788;23;20197;-76
2022/01/18 06:01:35;;;;;;;1.35;1.25;;;;;;;-1.50;75.53;61840.91;6196467;23;20174;-75
2022/01/18 06:04:14;;;;;;;1.48;1.38;;;;;;;-1.46;76.34;61850.50;6194939;23;20185;-76
2022/01/18 06:06:53;;;;;;;1.40;1.00;;;;;;;-1.47;76.35;61846.47;6196525;23;20162;-76
2022/01/18 06:09:21;;;;;;;1.05;1.00;;;;;;;-1.45;76.13;61859.00;6196528;23;20201;-75
2022/01/18 06:11:48;;;;;;;0.95;0.93;;;;;;;-1.41;76.33;61858.09;6195183;23;20178;-76
2022/01/18 06:14:17;;;;;;;2.25;1.70;;;;;;;-1.45;76.59;61854.00;6195821;23;20244;-77
2022/01/18 06:16:44;;;;;;;4.38;1.35;;;;;;;-1.43;75.55;61856.06;6195409;23;20170;-76
2022/01/18 06:19:11;;;;;;;1.30;0.90;;;;;;;-1.42;76.02;61854.09;6196682;23;20521;-76
2022/01/18 06:21:37;;;;;;;1.55;1.45;;;;;;;-1.41;75.88;61855.63;6195051;23;20174;-76
2022/01/18 06:24:07;;;;;;;1.27;1.20;;;;;;;-1.40;75.73;61861.63;6195742;23;20312;-75
2022/01/18 06:26:34;;;;;;;1.40;1.30;;;;;;;-1.42;75.17;61854.09;6195847;23;20177;-75
2022/01/18 06:29:02;;;;;;;1.40;1.35;;;;;;;-1.37;76.01;61859.19;6196787;23;20228;-76
2022/01/18 06:31:31;;;;;;;2.15;1.05;;;;;;;-1.41;75.64;61858.09;6200084;23;20158;-75
2022/01/18 06:33:58;;;;;;;1.30;0.98;;;;;;;-1.37;75.09;61862.22;6196691;23;20205;-75
2022/01/18 06:36:25;;;;;;;1.35;1.27;;;;;;;-1.39;75.47;61860.16;6195928;23;20170;-76
2022/01/18 06:38:52;;;;;;;1.65;1.35;;;;;;;-1.34;75.37;61865.28;6195486;23;20226;-75
2022/01/18 06:41:19;;;;;;;1.73;1.63;;;;;;;-1.29;73.70;61870.38;6195017;23;20170;-76
2022/01/18 06:43:46;;;;;;;1.30;1.25;;;;;;;-1.28;73.93;61868.41;6195697;23;20176;-74
2022/01/18 06:46:12;;;;;;;1.42;1.27;;;;;;;-1.29;73.78;61864.88;6195020;23;20431;-77
2022/01/18 06:48:44;;;;;;;1.63;1.40;;;;;;;-1.28;73.79;61868.41;6194627;23;20170;-76
2022/01/18 06:51:12;;;;;;;1.85;1.73;;;;;;;-1.28;73.27;61868.41;6195795;23;20177;-75
2022/01/18 06:53:44;;;;;;;1.10;1.10;;;;;;;-1.27;73.60;61869.94;6195329;23;20241;-76
2022/01/18 06:56:12;;;;;;;1.63;1.52;;;;;;;-1.29;75.10;61872.88;6197817;23;20169;-78
2022/01/18 06:58:40;;;;;;;1.75;1.20;;;;;;;-1.31;73.88;61872.81;6196293;23;20208;-76
2022/01/18 07:01:07;;;;;;;4.68;1.77;;;;;;;-1.27;74.22;61871.91;6195149;23;20260;-76
2022/01/18 07:03:33;;;;;;;1.48;1.38;;;;;;;-1.14;73.47;61885.25;6195265;23;20216;-77
2022/01/18 07:06:02;;;;;;;1.85;1.77;;;;;;;-1.14;73.23;61885.25;6193789;23;20194;-76
2022/01/18 07:08:30;;;;;;;1.80;1.52;;;;;;;-1.06;73.67;61893.41;6193471;23;20208;-76
2022/01/18 07:10:57;;;;;;;1.40;1.30;;;;;;;-0.92;73.44;61904.75;6193592;23;20189;-75
2022/01/18 07:13:24;;;;;;;2.30;1.52;;;;;;;-0.83;72.96;61916.47;6195517;23;20201;-76
2022/01/18 07:15:51;;;;;;;1.00;1.00;;;;;;;-0.80;72.77;61920.03;6194656;23;20510;-76
2022/01/18 07:18:18;;;;;;;2.00;1.27;;;;;;;-0.79;72.51;61920.53;6196198;23;20167;-76
2022/01/18 07:20:45;;;;;;;1.27;1.20;;;;;;;-0.74;73.09;61923.69;6194932;23;20201;-77
2022/01/18 07:23:14;;;;;;;1.67;0.98;;;;;;;-0.61;71.02;61937.00;6195073;23;20425;-76
2022/01/18 07:25:44;;;;;;;1.85;1.75;;;;;;;-0.39;69.22;61959.53;6193867;23;20204;-76
2022/01/18 07:28:11;;;;;;;1.73;1.52;;;;;;;-0.27;68.95;61971.31;6195295;23;20180;-76
2022/01/18 07:30:39;;;;;;;1.20;1.20;;;;;;;-0.04;67.63;61995.41;6195732;23;20190;-76
2022/01/18 07:33:06;;;;;;;1.75;1.25;;;;;;;-0.28;67.85;61973.31;6195522;23;20277;-76
2022/01/18 07:35:34;;;;;;;3.30;1.80;;;;;;;-0.34;68.06;61964.13;6194577;23;20217;-76
2022/01/18 07:38:02;;;;;;;3.45;1.60;;;;;;;-0.57;69.42;61941.09;6195097;23;20257;-75
2022/01/18 07:40:32;;;;;;;1.92;1.80;;;;;;;-0.62;70.40;61940.47;6195203;23;20205;-76
2022/01/18 07:43:01;;;;;;;1.58;1.50;;;;;;;-0.72;69.63;61932.72;6193788;23;20162;-76
2022/01/18 07:45:29;;;;;;;1.60;1.50;;;;;;;-0.79;71.06;61923.03;6195053;23;20194;-75
2022/01/18 07:47:56;;;;;;;1.23;1.08;;;;;;;-0.79;71.78;61918.03;6195614;23;20217;-75
2022/01/18 07:50:23;;;;;;;2.15;1.35;;;;;;;-0.78;70.00;61919.06;6201178;23;20200;-75
2022/01/18 07:52:50;;;;;;;1.30;1.20;;;;;;;-0.80;70.97;61922.53;6199552;23;20180;-77
2022/01/18 07:55:18;;;;;;;1.55;1.45;;;;;;;-0.73;71.91;61926.69;6199412;23;20236;-76
2022/01/18 07:57:46;;;;;;;2.00;1.90;;;;;;;-0.71;71.26;61934.25;6200618;23;20170;-75
2022/01/18 08:00:16;;;;;;;2.88;1.38;;;;;;;-0.65;72.33;61939.88;6198641;23;20198;-76
2022/01/18 08:02:43;;;;;;;1.50;1.50;;;;;;;-0.58;70.77;61939.56;6198946;23;20174;-75
2022/01/18 08:05:12;;;;;;;1.17;1.17;;;;;;;-0.54;69.99;61948.66;6204037;23;20225;-76
2022/01/18 08:07:39;;;;;;;1.05;1.05;;;;;;;-0.53;70.58;61949.66;6199568;23;20174;-78
2022/01/18 08:10:11;;;;;;;2.88;1.65;;;;;;;-0.48;72.08;61957.81;6199557;23;20256;-77
2022/01/18 08:12:38;;;;;;;1.40;1.30;;;;;;;-0.48;71.58;61955.31;6198131;23;20170;-76
2022/01/18 08:15:17;;;;;;;3.88;1.55;;;;;;;-0.47;71.71;61951.34;6196835;23;20205;-76
2022/01/18 08:17:47;;;;;;;1.30;1.20;;;;;;;-0.38;70.67;61960.06;6205421;23;20169;-76
2022/01/18 08:20:26;;;;;;;1.60;1.50;;;;;;;-0.36;69.75;61962.59;6201444;23;20186;-75
2022/01/18 08:22:53;;;;;;;3.15;1.50;;;;;;;-0.32;69.37;61971.19;6212039;23;20201;-76
2022/01/18 08:25:22;;;;;;;1.42;1.33;;;;;;;-0.27;69.95;61971.31;6196735;23;20584;-76
2022/01/18 08:27:50;;;;;;;2.95;1.33;;;;;;;-0.31;68.84;61969.72;6202394;23;20186;-77
2022/01/18 08:30:19;;;;;;;1.00;1.00;;;;;;;-0.30;68.72;61970.75;6197539;23;20203;-76
2022/01/18 08:32:48;;;;;;;1.30;1.25;;;;;;;-0.22;69.56;61979.44;6197728;23;20205;-76
2022/01/18 08:35:15;;;;;;;1.30;1.20;;;;;;;-0.29;68.51;61974.25;6198206;23;20205;-77
2022/01/18 08:37:42;;;;;;;2.53;1.40;;;;;;;-0.23;69.38;61980.41;6200180;23;20176;-76
2022/01/18 08:40:10;;;;;;;1.20;1.10;;;;;;;-0.19;67.39;61980.00;6200619;23;20194;-77
2022/01/18 08:42:37;;;;;;;1.10;1.10;;;;;;;-0.09;67.48;61987.25;6198580;23;20170;-77
2022/01/18 08:45:06;;;;;;;1.52;1.50;;;;;;;-0.20;68.19;61979.00;6197796;23;20248;-78
2022/01/18 08:47:34;;;;;;;1.30;1.30;;;;;;;-0.15;66.97;61989.13;6196724;23;20162;-76
2022/01/18 08:50:01;;;;;;;1.27;1.23;;;;;;;-0.03;66.51;61998.41;6195692;23;20367;-75
2022/01/18 08:52:31;;;;;;;1.55;1.45;;;;;;;0.11;65.42;62012.22;6198040;23;20181;-77
2022/01/18 08:54:58;;;;;;;1.40;1.30;;;;;;;0.27;65.76;62026.66;6197952;23;20265;-77
2022/01/18 08:57:36;;;;;;;1.23;1.02;;;;;;;0.24;64.35;62023.56;6197873;23;20221;-77
2022/01/18 09:00:08;;;;;;;2.38;2.15;;;;;;;0.39;65.01;62040.94;6198955;23;20194;-77
2022/01/18 09:02:37;;;;;;;1.67;1.55;;;;;;;0.55;62.43;62057.34;6197494;23;20171;-76
2022/01/18 09:05:04;;;;;;;1.17;1.08;;;;;;;0.46;62.85;62045.59;6196263;23;20189;-77
2022/01/18 09:07:33;;;;;;;1.52;1.30;;;;;;;0.58;62.31;62063.44;6196869;23;20222;-77
2022/01/18 09:10:03;;;;;;;1.02;1.02;;;;;;;0.50;62.47;62050.22;6196242;23;20194;-76
2022/01/18 09:12:29;;;;;;;1.65;1.55;;;;;;;0.48;61.24;62047.66;6197070;23;20237;-78
2022/01/18 09:14:56;;;;;;;3.00;1.75;;;;;;;0.49;61.24;62051.19;6195909;23;20385;-76
2022/01/18 09:17:23;;;;;;;2.00;1.85;;;;;;;0.40;60.08;62039.47;6196475;23;20498;-77
2022/01/18 09:19:51;;;;;;;2.08;1.88;;;;;;;0.35;60.77;62034.31;6197725;23;20190;-76
2022/01/18 09:22:18;;;;;;;2.05;1.40;;;;;;;0.33;60.64;62032.28;6197493;23;20209;-76
2022/01/18 09:24:45;;;;;;;1.60;1.60;;;;;;;0.48;60.27;62050.16;6198693;23;20202;-76
2022/01/18 09:27:12;;;;;;;1.23;1.17;;;;;;;0.44;59.57;62044.06;6197990;23;20170;-77
2022/01/18 09:29:40;;;;;;;1.13;1.13;;;;;;;0.30;60.57;62032.22;6203207;23;20194;-77
2022/01/18 09:32:07;;;;;;;2.50;1.77;;;;;;;0.44;60.95;62043.56;6203477;23;20387;-77
2022/01/18 09:34:34;;;;;;;1.92;1.83;;;;;;;0.60;60.81;62062.47;6199279;23;20205;-76
2022/01/18 09:37:03;;;;;;;1.75;1.55;;;;;;;0.58;60.79;62058.44;6201460;23;20174;-77
2022/01/18 09:39:30;;;;;;;1.38;1.27;;;;;;;0.45;62.46;62050.09;6194707;23;20236;-76
2022/01/18 09:42:05;;;;;;;1.85;1.75;;;;;;;0.51;63.90;62053.75;6196248;23;20174;-78
2022/01/18 09:44:33;;;;;;;1.15;1.15;;;;;;;0.34;65.12;62038.84;6196466;23;20197;-78
2022/01/18 09:47:00;;;;;;;1.60;1.50;;;;;;;0.40;65.17;62037.47;6197410;23;20181;-78
2022/01/18 09:49:27;;;;;;;3.08;1.95;;;;;;;0.63;64.29;62065.53;6197106;23;20197;-78
2022/01/18 09:51:54;;;;;;;2.25;1.65;;;;;;;0.69;64.91;62072.19;6196934;23;20241;-77
2022/01/18 09:54:23;;;;;;;2.17;1.92;;;;;;;0.97;64.00;62100.91;6195155;23;20220;-78
2022/01/18 09:56:50;;;;;;;1.70;1.60;;;;;;;1.03;60.59;62109.06;6195475;23;20171;-77
2022/01/18 09:59:17;;;;;;;1.48;1.48;;;;;;;0.96;60.84;62101.91;6196567;23;20494;-77
2022/01/18 10:01:45;;;;;;;1.73;1.52;;;;;;;0.82;61.67;62088.03;6197005;23;20504;-78
2022/01/18 10:04:18;;;;;;;1.85;1.13;;;;;;;0.81;61.12;62081.50;6195155;23;20380;-77
2022/01/18 10:06:46;;;;;;;2.55;2.08;;;;;;;0.82;62.16;62090.03;6197169;23;20462;-78
2022/01/18 10:09:15;;;;;;;1.80;1.70;;;;;;;0.91;61.20;62091.75;6196700;23;20194;-77
2022/01/18 10:12:02;;;;;;;4.30;2.13;;;;;;;0.94;61.11;62090.34;6196716;23;20355;-77
2022/01/18 10:14:29;;;;;;;1.50;1.38;;;;;;;0.80;60.20;62082.97;6196441;23;20377;-77
2022/01/18 10:16:56;;;;;;;2.08;1.98;;;;;;;0.81;60.63;62082.00;6195346;23;20379;-77
2022/01/18 10:19:31;;;;;;;2.30;1.80;;;;;;;0.80;61.04;62078.47;6195630;23;20218;-77
2022/01/18 10:22:09;;;;;;;5.78;1.60;;;;;;;0.60;61.26;62062.47;6198124;23;20170;-77
2022/01/18 10:24:36;;;;;;;3.30;1.67;;;;;;;0.77;61.58;62077.41;6195848;23;20237;-77
2022/01/18 10:27:05;;;;;;;2.33;2.13;;;;;;;0.78;61.10;62078.41;6195020;23;20233;-77
2022/01/18 10:29:35;;;;;;;3.67;1.95;;;;;;;0.73;60.49;62076.31;6194583;23;20235;-76
2022/01/18 10:32:12;;;;;;;3.33;1.90;;;;;;;0.91;60.38;62089.25;6195232;23;20478;-77
2022/01/18 10:35:04;;;;;;;5.75;1.40;;;;;;;0.94;60.34;62097.34;6195583;23;20224;-76
2022/01/18 10:37:33;;;;;;;1.63;1.52;;;;;;;0.95;60.67;62096.38;6195700;23;20182;-76
2022/01/18 10:40:03;;;;;;;2.30;1.58;;;;;;;0.90;60.96;62091.22;6196305;23;20241;-76
2022/01/18 10:42:36;;;;;;;1.50;1.40;;;;;;;0.70;62.64;62073.25;6197753;23;20162;-77
2022/01/18 10:45:08;;;;;;;1.42;1.33;;;;;;;0.51;63.31;62051.25;6194875;23;20261;-75
2022/01/18 10:47:37;;;;;;;2.03;1.92;;;;;;;0.82;62.38;62090.03;6196018;23;20228;-76
2022/01/18 10:50:09;;;;;;;1.83;1.40;;;;;;;0.76;62.13;62076.88;6193912;23;20193;-75
2022/01/18 10:52:36;;;;;;;1.45;1.35;;;;;;;0.91;60.94;62094.25;6196979;23;20240;-76
2022/01/18 10:55:04;;;;;;;3.80;1.73;;;;;;;0.67;62.28;62072.16;6197239;23;20275;-77
2022/01/18 10:57:36;;;;;;;3.47;1.70;;;;;;;0.77;63.28;62080.41;6198991;23;20174;-77
2022/01/18 11:00:07;;;;;;;1.55;1.45;;;;;;;0.86;62.68;62089.13;6199267;23;20194;-77
2022/01/18 11:02:35;;;;;;;2.25;2.05;;;;;;;0.97;62.75;62097.91;6199474;23;20173;-77
2022/01/18 11:05:13;;;;;;;3.35;2.00;;;;;;;0.75;64.58;62078.38;6198286;23;20244;-78
2022/01/18 11:07:40;;;;;;;1.15;1.10;;;;;;;0.51;64.42;62053.75;6199236;23;20197;-77
2022/01/18 11:10:08;;;;;;;2.67;1.90;;;;;;;0.51;64.12;62055.75;6199287;23;20217;-78
2022/01/18 11:12:51;;;;;;;3.58;1.65;;;;;;;0.78;61.84;62081.44;6199257;23;20166;-77
2022/01/18 11:15:21;;;;;;;2.67;1.80;;;;;;;0.79;59.70;62079.97;6198224;23;20216;-77
2022/01/18 11:17:57;;;;;;;6.07;1.60;;;;;;;0.83;59.75;62086.56;6197643;23;20170;-77
2022/01/18 11:20:24;;;;;;;3.10;1.83;;;;;;;0.94;60.32;62094.81;6194668;23;20194;-76
2022/01/18 11:22:53;;;;;;;1.80;1.70;;;;;;;0.68;62.48;62071.19;6195889;23;20201;-78
2022/01/18 11:25:21;;;;;;;1.67;1.33;;;;;;;0.67;63.42;62070.16;6195239;23;20392;-77
2022/01/18 11:27:52;;;;;;;2.97;2.05;;;;;;;0.66;62.51;62068.59;6195536;23;20205;-76
2022/01/18 11:30:21;;;;;;;2.65;1.70;;;;;;;0.91;62.50;62097.28;6195212;23;20190;-77
2022/01/18 11:32:51;;;;;;;2.15;1.70;;;;;;;0.97;61.19;62097.91;6195462;23;20478;-77
2022/01/18 11:35:21;;;;;;;1.98;1.88;;;;;;;0.86;60.92;62089.13;6195604;23;20209;-76
2022/01/18 11:38:09;;;;;;;2.25;1.80;;;;;;;0.89;60.60;62089.69;6195449;23;20525;-77
2022/01/18 11:40:48;;;;;;;1.75;1.50;;;;;;;0.66;61.50;62068.59;6195195;23;20189;-76
2022/01/18 11:43:34;;;;;;;2.72;1.58;;;;;;;0.78;60.94;62086.44;6194631;23;20174;-74
2022/01/18 11:46:19;;;;;;;2.28;1.35;;;;;;;0.81;60.21;62081.50;6195837;23;20202;-77
2022/01/18 11:48:46;;;;;;;2.08;1.60;;;;;;;0.86;60.47;62089.63;6195670;23;20166;-75
2022/01/18 11:51:17;;;;;;;1.67;1.30;;;;;;;0.72;60.36;62072.28;6194964;23;20466;-75
2022/01/18 11:53:54;;;;;;;2.50;1.60;;;;;;;0.71;61.01;62076.75;6195550;23;20458;-75
2022/01/18 11:56:33;;;;;;;1.52;1.42;;;;;;;0.76;61.36;62076.88;6195710;23;20298;-76
2022/01/18 11:59:15;;;;;;;2.10;1.33;;;;;;;0.72;61.51;62072.28;6195754;23;20197;-76
2022/01/18 12:01:50;;;;;;;2.88;1.13;;;;;;;0.80;59.92;62085.47;6196099;23;20463;-74
2022/01/18 12:04:54;;;;;;;1.90;1.75;;;;;;;0.90;59.70;62093.75;6196117;23;20261;-76
2022/01/18 12:07:51;;;;;;;2.03;1.88;;;;;;;0.77;59.75;62077.41;6197039;23;20161;-76
2022/01/18 12:10:46;;;;;;;6.20;1.50;;;;;;;0.67;60.41;62069.66;6197206;23;20182;-76
2022/01/18 12:13:29;;;;;;;3.60;2.13;;;;;;;0.70;59.96;62075.75;6147059;23;20229;-76
2022/01/18 12:15:59;;;;;;;1.70;1.60;;;;;;;0.60;60.25;62060.47;6192372;23;20206;-76
2022/01/18 12:18:29;;;;;;;4.85;1.38;;;;;;;0.70;59.80;62072.72;6195041;23;20170;-76
2022/01/18 12:20:59;;;;;;;7.75;1.80;;;;;;;0.80;59.31;62077.97;6196047;23;20253;-75
2022/01/18 12:23:27;;;;;;;2.35;1.65;;;;;;;0.65;60.16;62062.59;6194428;23;20173;-75
2022/01/18 12:25:57;;;;;;;1.35;1.27;;;;;;;0.66;60.76;62071.63;6195214;23;20262;-76
2022/01/18 12:28:57;;;;;;;2.97;1.98;;;;;;;0.79;58.95;62084.97;6196239;23;20361;-75
2022/01/18 12:32:17;;;;;;;2.92;1.60;;;;;;;0.87;58.99;62090.66;6198656;23;20234;-75
2022/01/18 12:34:46;;;;;;;2.25;1.70;;;;;;;0.95;57.88;62098.88;6196887;23;20210;-76
2022/01/18 12:37:36;;;;;;;3.80;1.92;;;;;;;0.84;57.04;62087.59;6196546;23;20234;-77
2022/01/18 12:40:08;;;;;;;1.92;1.33;;;;;;;0.82;56.71;62088.03;6195469;23;20230;-74
2022/01/18 12:45:23;;;;;;;0.88;0.88;;;;;;;0.81;54.16;62084.50;6197256;23;20197;-74
2022/01/18 12:47:55;;;;;;;2.40;1.70;;;;;;;0.81;54.98;62084.50;6196774;23;20238;-75
2022/01/18 12:50:24;;;;;;;3.05;1.63;;;;;;;0.93;54.51;62098.81;6197656;23;20201;-75
2022/01/18 12:52:54;;;;;;;2.13;1.83;;;;;;;0.92;55.36;62095.78;6196716;23;20221;-76
2022/01/18 12:55:31;;;;;;;2.47;2.10;;;;;;;1.09;55.66;62112.72;6196373;23;20494;-75
2022/01/18 12:58:00;;;;;;;1.52;1.42;;;;;;;1.30;54.32;62131.25;6196595;23;20205;-75
2022/01/18 13:00:27;;;;;;;5.25;1.77;;;;;;;1.10;55.06;62116.75;6196998;23;20402;-75
2022/01/18 13:02:59;;;;;;;3.58;2.30;;;;;;;1.24;53.61;62132.63;6196707;23;20166;-76
2022/01/18 13:05:40;;;;;;;1.73;1.60;;;;;;;1.28;53.28;62131.72;6196725;23;20244;-75
2022/01/18 13:08:08;;;;;;;1.10;1.10;;;;;;;0.96;52.86;62097.41;6196803;23;20161;-75
2022/01/18 13:10:40;;;;;;;11.13;1.75;;;;;;;1.05;53.09;62104.09;6196920;23;20249;-76
2022/01/18 13:13:08;;;;;;;13.85;1.85;;;;;;;1.17;52.41;62118.44;6197603;23;20413;-77
2022/01/18 13:15:51;;;;;;;1.65;1.50;;;;;;;1.29;52.62;62133.25;6197982;23;20210;-75
2022/01/18 13:23:59;;;;;;;3.70;1.52;;;;;;;1.04;54.29;62108.09;6205282;23;20552;-76
2022/01/18 13:26:31;;;;;;;3.92;1.73;;;;;;;1.10;54.66;62111.25;6199282;23;20166;-76
2022/01/18 13:29:11;;;;;;;2.25;1.90;;;;;;;1.13;54.55;62114.84;6199630;23;20193;-77
2022/01/18 13:31:39;;;;;;;1.67;1.45;;;;;;;0.99;55.21;62108.00;6210073;23;20173;-76
2022/01/18 13:34:11;;;;;;;1.85;1.20;;;;;;;0.91;54.04;62092.28;6205346;23;20193;-77
2022/01/18 13:36:49;;;;;;;1.55;1.45;;;;;;;1.00;53.75;62113.53;6196695;23;20190;-76
2022/01/18 13:39:29;;;;;;;6.13;1.98;;;;;;;0.92;54.22;62095.28;6195676;23;20379;-76
2022/01/18 13:41:58;;;;;;;2.42;1.83;;;;;;;0.91;54.41;62094.25;6197350;23;20170;-77
2022/01/18 13:44:26;;;;;;;2.55;2.35;;;;;;;0.93;54.17;62101.81;6197163;23;20190;-76
2022/01/18 13:46:53;;;;;;;4.97;2.63;;;;;;;0.77;54.52;62077.91;6197359;23;20205;-77
2022/01/18 13:49:25;;;;;;;1.60;1.50;;;;;;;0.58;54.59;62058.44;6197321;23;20194;-76
2022/01/18 13:52:06;;;;;;;1.70;1.55;;;;;;;0.47;55.21;62049.66;6197629;23;20162;-76
2022/01/18 13:54:44;;;;;;;1.42;1.33;;;;;;;0.37;55.28;62036.91;6197244;23;20193;-75
2022/01/18 13:57:11;;;;;;;2.25;2.15;;;;;;;0.31;55.84;62032.75;6196063;23;20212;-76
2022/01/18 13:59:38;;;;;;;4.05;2.50;;;;;;;0.26;56.00;62030.63;6193783;23;20194;-75
2022/01/18 14:02:14;;;;;;;4.25;1.90;;;;;;;0.26;56.81;62035.13;6193683;23;20215;-76
2022/01/18 14:04:43;;;;;;;3.95;2.70;;;;;;;0.24;56.97;62023.56;6197312;23;20513;-76
2022/01/18 14:07:10;;;;;;;3.55;2.22;;;;;;;0.15;57.59;62016.84;6195780;23;20222;-75
2022/01/18 14:09:38;;;;;;;2.90;2.20;;;;;;;0.16;57.90;62012.34;6195892;23;20190;-76
2022/01/18 14:12:06;;;;;;;6.93;2.78;;;;;;;0.16;58.22;62015.38;6196011;23;20181;-77
2022/01/18 14:14:34;;;;;;;4.28;2.45;;;;;;;-0.06;58.75;61992.81;6195777;23;20236;-76
2022/01/18 14:17:04;;;;;;;2.70;2.50;;;;;;;-0.09;59.87;61987.25;6196333;23;20205;-75
2022/01/18 14:19:33;;;;;;;10.73;2.92;;;;;;;-0.01;59.92;62002.94;6195928;23;20334;-75
2022/01/18 14:22:02;;;;;;;4.88;2.30;;;;;;;-0.24;61.10;61972.38;6196155;23;20516;-76
2022/01/18 14:24:38;;;;;;;6.25;2.45;;;;;;;-0.30;61.77;61976.25;6196602;23;20198;-76
2022/01/18 14:27:07;;;;;;;3.72;2.50;;;;;;;-0.32;61.66;61966.19;6195782;23;20536;-76
2022/01/18 14:29:52;;;;;;;3.42;2.58;;;;;;;-0.34;61.41;61967.16;6194964;23;20244;-76
2022/01/18 14:32:29;;;;;;;4.35;2.08;;;;;;;-0.44;61.17;61958.91;6195759;23;20221;-76
2022/01/18 14:34:59;;;;;;;3.17;2.15;;;;;;;-0.45;61.79;61957.88;6195319;23;20182;-77
2022/01/18 14:37:47;;;;;;;4.35;2.97;;;;;;;-0.40;61.83;61960.50;6196953;23;20193;-75
2022/01/18 14:40:24;;;;;;;2.08;1.85;;;;;;;-0.48;62.18;61955.31;6195515;23;20249;-76
2022/01/18 14:42:56;;;;;;;3.10;2.38;;;;;;;-0.47;62.20;61953.31;6195293;23;20162;-76
2022/01/18 14:45:38;;;;;;;5.43;2.63;;;;;;;-0.54;62.98;61946.66;6196184;23;20196;-76
2022/01/18 14:48:08;;;;;;;5.65;2.05;;;;;;;-0.61;63.06;61939.50;6195984;23;20399;-75
2022/01/18 14:50:46;;;;;;;2.50;1.42;;;;;;;-0.69;63.09;61928.28;6201114;23;20193;-77
2022/01/18 14:53:14;;;;;;;3.22;2.17;;;;;;;-0.62;63.35;61933.47;6196313;23;20166;-75
2022/01/18 14:55:42;;;;;;;5.50;2.15;;;;;;;-0.67;63.15;61930.34;6195586;23;20379;-76
2022/01/18 14:58:08;;;;;;;2.55;2.25;;;;;;;-0.68;63.23;61931.81;6195801;23;20170;-76
2022/01/18 15:00:36;;;;;;;2.22;1.92;;;;;;;-0.71;63.57;61939.25;6195950;23;20236;-75
2022/01/18 15:03:05;;;;;;;2.40;2.25;;;;;;;-0.72;63.23;61925.22;6195750;23;20225;-75
2022/01/18 15:05:33;;;;;;;4.25;1.90;;;;;;;-0.74;63.64;61923.69;6196088;23;20419;-75
2022/01/18 15:08:01;;;;;;;5.03;2.40;;;;;;;-0.71;63.95;61928.75;6195194;23;20497;-74
2022/01/18 15:10:30;;;;;;;4.35;2.53;;;;;;;-0.82;64.20;61920.50;6195602;23;20190;-75
2022/01/18 15:12:58;;;;;;;3.15;1.98;;;;;;;-0.90;64.15;61909.81;6196814;23;20173;-75
2022/01/18 15:15:28;;;;;;;1.98;1.80;;;;;;;-0.93;63.49;61904.22;6196572;23;20214;-75
2022/01/18 15:17:55;;;;;;;3.72;1.90;;;;;;;-0.88;63.85;61909.34;6196017;23;20174;-75
2022/01/18 15:20:23;;;;;;;9.35;4.18;;;;;;;-0.89;63.57;61907.81;6194256;23;20236;-75
2022/01/18 15:22:52;;;;;;;11.45;4.88;;;;;;;-0.98;64.17;61903.59;6195386;23;20212;-75
2022/01/18 15:25:21;;;;;;;4.47;2.65;;;;;;;-0.93;63.21;61901.22;6194783;23;20198;-74
2022/01/18 15:27:50;;;;;;;2.03;1.70;;;;;;;-0.94;63.35;61902.69;6194699;23;20176;-74
2022/01/18 15:30:18;;;;;;;4.00;2.50;;;;;;;-0.96;63.36;61903.13;6195455;23;20194;-74
2022/01/18 15:32:46;;;;;;;3.10;1.70;;;;;;;-0.93;63.10;61904.22;6196151;23;20166;-76
2022/01/18 15:35:14;;;;;;;2.72;2.20;;;;;;;-0.94;63.62;61905.72;6194968;23;20194;-74
2022/01/18 15:37:43;;;;;;;1.90;1.80;;;;;;;-1.06;63.69;61890.94;6195812;23;20174;-74
2022/01/18 15:40:11;;;;;;;2.10;1.92;;;;;;;-1.03;63.44;61894.00;6195743;23;20190;-75
2022/01/18 15:42:40;;;;;;;5.00;2.00;;;;;;;-1.06;63.38;61888.44;6195141;23;20494;-76
2022/01/18 15:45:11;;;;;;;2.85;2.13;;;;;;;-1.01;63.03;61901.03;6195395;23;20197;-76
2022/01/18 15:47:38;;;;;;;3.13;2.40;;;;;;;-1.04;62.63;61895.47;6195671;23;20176;-75
2022/01/18 15:50:07;;;;;;;2.30;2.10;;;;;;;-1.02;62.94;61897.53;6195230;23;20198;-75
2022/01/18 15:52:34;;;;;;;3.53;2.55;;;;;;;-1.06;62.80;61892.91;6193974;23;20233;-75
2022/01/18 15:55:00;;;;;;;1.80;1.70;;;;;;;-1.05;62.27;61894.44;6195082;23;20248;-76
2022/01/18 15:57:28;;;;;;;3.33;2.55;;;;;;;-1.03;62.07;61895.97;6195132;23;20201;-75
2022/01/18 15:59:56;;;;;;;4.72;2.70;;;;;;;-1.03;62.31;61896.50;6195919;23;20389;-75
2022/01/18 16:02:24;;;;;;;15.18;6.15;;;;;;;-1.04;62.96;61899.94;6197386;23;20174;-75
2022/01/18 16:04:51;;;;;;;12.20;5.18;;;;;;;-1.05;62.96;61899.44;6195192;23;20194;-75
2022/01/18 16:07:18;;;;;;;4.30;1.98;;;;;;;-1.11;62.79;61883.31;6200323;23;20184;-75
2022/01/18 16:09:45;;;;;;;3.45;2.47;;;;;;;-1.08;62.83;61890.84;6196116;23;20217;-75
2022/01/18 16:12:12;;;;;;;2.92;2.50;;;;;;;-1.13;62.99;61891.25;6196852;23;20177;-76
2022/01/18 16:14:39;;;;;;;1.65;1.52;;;;;;;-1.15;63.48;61891.69;6198144;23;20186;-76
2022/01/18 16:17:06;;;;;;;4.53;2.40;;;;;;;-1.20;63.94;61881.59;6198061;23;20232;-76
2022/01/18 16:19:34;;;;;;;3.85;2.92;;;;;;;-1.23;64.93;61884.03;6198759;23;20427;-75
2022/01/18 16:22:02;;;;;;;3.22;2.63;;;;;;;-1.22;65.55;61880.06;6198794;23;20294;-75
2022/01/18 16:24:29;;;;;;;2.15;2.03;;;;;;;-1.25;65.50;61874.50;6197168;23;20392;-75
2022/01/18 16:26:57;;;;;;;3.33;2.97;;;;;;;-1.20;65.11;61881.59;6197212;23;20267;-76
2022/01/18 16:29:24;;;;;;;2.25;2.15;;;;;;;-1.19;65.01;61887.59;6196479;23;20510;-75
2022/01/18 16:31:52;;;;;;;3.60;2.42;;;;;;;-1.26;65.44;61878.44;6196975;23;20170;-75
2022/01/18 16:34:21;;;;;;;2.55;2.35;;;;;;;-1.28;65.82;61876.41;6197371;23;20190;-74
2022/01/18 16:36:50;;;;;;;5.45;2.28;;;;;;;-1.30;65.96;61866.88;6197197;23;20201;-76
2022/01/18 16:39:18;;;;;;;3.40;2.75;;;;;;;-1.32;67.17;61866.81;6196626;23;20190;-75
2022/01/18 16:41:45;;;;;;;4.45;1.92;;;;;;;-1.30;68.08;61869.38;6196227;23;20170;-75
2022/01/18 16:44:13;;;;;;;2.92;2.65;;;;;;;-1.34;68.32;61869.75;6197169;23;20186;-75
2022/01/18 16:46:40;;;;;;;4.00;2.65;;;;;;;-1.40;68.82;61866.63;6196167;23;20173;-75
2022/01/18 16:49:07;;;;;;;8.63;2.28;;;;;;;-1.42;68.65;61857.09;6196296;23;20197;-75
2022/01/18 16:51:35;;;;;;;4.53;2.08;;;;;;;-1.39;68.47;61854.66;6197281;23;20170;-75
2022/01/18 16:54:05;;;;;;;3.90;1.70;;;;;;;-1.43;68.54;61853.03;6196397;23;20174;-75
2022/01/18 16:56:32;;;;;;;3.78;2.58;;;;;;;-1.33;67.91;61863.78;6197291;23;20245;-76
2022/01/18 16:58:59;;;;;;;3.33;2.53;;;;;;;-1.42;68.22;61859.06;6196690;23;20176;-76
2022/01/18 17:01:31;;;;;;;4.10;2.42;;;;;;;-1.43;68.01;61850.56;6199397;23;20219;-77
2022/01/18 17:03:59;;;;;;;3.20;2.85;;;;;;;-1.51;68.26;61852.34;6198287;23;20170;-76
2022/01/18 17:06:27;;;;;;;3.47;2.58;;;;;;;-1.44;68.16;61860.03;6197548;23;20369;-77
2022/01/18 17:08:54;;;;;;;4.85;2.40;;;;;;;-1.46;67.93;61852.47;6199568;23;20170;-76
2022/01/18 17:11:23;;;;;;;2.92;2.65;;;;;;;-1.58;67.36;61840.72;6198018;23;20163;-77
2022/01/18 17:13:50;;;;;;;3.08;2.53;;;;;;;-1.46;66.99;61862.47;6198346;23;20170;-76
2022/01/18 17:16:17;;;;;;;3.42;1.80;;;;;;;-1.49;66.89;61846.91;6199551;23;20210;-77
2022/01/18 17:18:45;;;;;;;4.40;2.20;;;;;;;-1.58;66.92;61843.22;6200070;23;20193;-75
2022/01/18 17:21:12;;;;;;;2.50;2.40;;;;;;;-1.60;66.90;61841.16;6198521;23;20170;-76
2022/01/18 17:23:39;;;;;;;4.82;2.90;;;;;;;-1.62;66.44;61836.09;6198677;23;20162;-76